sensor_id;sensor_type;location;lat;lon;timestamp;pressure;altitude;pressure_sealevel;temperature;humidity
62057;BME280;48016;50.284;18.860;2024-01-15T00:02:25;96346.16;;;-0.41;77.78
62057;BME280;48016;50.284;18.860;2024-01-15T00:04:51;96338.13;;;-0.44;77.79
62057;BME280;48016;50.284;18.860;2024-01-15T00:07:18;96335.39;;;-0.49;77.58
62057;BME280;48016;50.284;18.860;2024-01-15T00:09:45;96332.34;;;-0.52;77.55
62057;BME280;48016;50.284;18.860;2024-01-15T00:12:11;96328.65;;;-0.53;77.62
62057;BME280;48016;50.284;18.860;2024-01-15T00:14:38;96323.00;;;-0.55;77.57
62057;BME280;48016;50.284;18.860;2024-01-15T00:17:04;96322.95;;;-0.57;77.50
62057;BME280;48016;50.284;18.860;2024-01-15T00:19:31;96318.51;;;-0.59;77.63
62057;BME280;48016;50.284;18.860;2024-01-15T00:21:58;96317.42;;;-0.59;77.60
62057;BME280;48016;50.284;18.860;2024-01-15T00:24:25;96318.61;;;-0.60;77.76
62057;BME280;48016;50.284;18.860;2024-01-15T00:26:52;96312.70;;;-0.59;77.79
62057;BME280;48016;50.284;18.860;2024-01-15T00:29:20;96305.70;;;-0.57;77.72
62057;BME280;48016;50.284;18.860;2024-01-15T00:31:46;96303.15;;;-0.57;77.69
62057;BME280;48016;50.284;18.860;2024-01-15T00:34:13;96296.77;;;-0.57;77.70
62057;BME280;48016;50.284;18.860;2024-01-15T00:36:40;96289.60;;;-0.57;77.76
62057;BME280;48016;50.284;18.860;2024-01-15T00:39:06;96293.88;;;-0.58;77.68
62057;BME280;48016;50.284;18.860;2024-01-15T00:41:33;96291.83;;;-0.60;77.72
62057;BME280;48016;50.284;18.860;2024-01-15T00:43:59;96290.72;;;-0.60;77.75
62057;BME280;48016;50.284;18.860;2024-01-15T00:46:26;96288.02;;;-0.59;77.91
62057;BME280;48016;50.284;18.860;2024-01-15T00:48:53;96289.95;;;-0.61;77.83
62057;BME280;48016;50.284;18.860;2024-01-15T00:51:19;96292.15;;;-0.60;77.83
62057;BME280;48016;50.284;18.860;2024-01-15T00:53:46;96286.35;;;-0.60;77.79
62057;BME280;48016;50.284;18.860;2024-01-15T00:56:12;96286.05;;;-0.59;77.75
62057;BME280;48016;50.284;18.860;2024-01-15T00:58:39;96280.65;;;-0.59;77.83
62057;BME280;48016;50.284;18.860;2024-01-15T01:01:06;96279.87;;;-0.58;77.62
62057;BME280;48016;50.284;18.860;2024-01-15T01:03:32;96277.34;;;-0.58;77.74
62057;BME280;48016;50.284;18.860;2024-01-15T01:05:59;96269.02;;;-0.57;77.79
62057;BME280;48016;50.284;18.860;2024-01-15T01:08:26;96264.98;;;-0.56;77.88
62057;BME280;48016;50.284;18.860;2024-01-15T01:10:52;96260.25;;;-0.57;77.85
62057;BME280;48016;50.284;18.860;2024-01-15T01:13:19;96246.84;;;-0.56;77.76
62057;BME280;48016;50.284;18.860;2024-01-15T01:15:45;96248.17;;;-0.56;77.75
62057;BME280;48016;50.284;18.860;2024-01-15T01:18:12;96245.11;;;-0.55;77.72
62057;BME280;48016;50.284;18.860;2024-01-15T01:20:38;96237.81;;;-0.56;77.78
62057;BME280;48016;50.284;18.860;2024-01-15T01:23:05;96239.82;;;-0.57;77.63
62057;BME280;48016;50.284;18.860;2024-01-15T01:25:32;96228.19;;;-0.59;77.74
62057;BME280;48016;50.284;18.860;2024-01-15T01:27:58;96230.60;;;-0.61;77.51
62057;BME280;48016;50.284;18.860;2024-01-15T01:30:25;96232.55;;;-0.62;77.69
62057;BME280;48016;50.284;18.860;2024-01-15T01:32:52;96223.20;;;-0.62;77.72
62057;BME280;48016;50.284;18.860;2024-01-15T01:35:18;96230.48;;;-0.61;77.63
62057;BME280;48016;50.284;18.860;2024-01-15T01:37:45;96227.67;;;-0.62;77.63
62057;BME280;48016;50.284;18.860;2024-01-15T01:40:11;96222.76;;;-0.63;77.66
62057;BME280;48016;50.284;18.860;2024-01-15T01:42:38;96217.02;;;-0.64;77.46
62057;BME280;48016;50.284;18.860;2024-01-15T01:45:05;96212.43;;;-0.64;77.52
62057;BME280;48016;50.284;18.860;2024-01-15T01:47:32;96208.33;;;-0.63;77.64
62057;BME280;48016;50.284;18.860;2024-01-15T01:49:58;96200.29;;;-0.61;77.71
62057;BME280;48016;50.284;18.860;2024-01-15T01:52:26;96195.43;;;-0.60;77.58
62057;BME280;48016;50.284;18.860;2024-01-15T01:54:53;96199.30;;;-0.60;77.55
62057;BME280;48016;50.284;18.860;2024-01-15T01:57:20;96193.57;;;-0.60;77.52
62057;BME280;48016;50.284;18.860;2024-01-15T01:59:47;96192.73;;;-0.61;77.51
62057;BME280;48016;50.284;18.860;2024-01-15T02:02:14;96186.45;;;-0.60;77.40
62057;BME280;48016;50.284;18.860;2024-01-15T02:04:42;96193.65;;;-0.61;77.23
62057;BME280;48016;50.284;18.860;2024-01-15T02:07:08;96187.30;;;-0.64;77.10
62057;BME280;48016;50.284;18.860;2024-01-15T02:09:36;96187.84;;;-0.66;77.15
62057;BME280;48016;50.284;18.860;2024-01-15T02:12:03;96182.48;;;-0.68;77.15
62057;BME280;48016;50.284;18.860;2024-01-15T02:14:30;96178.66;;;-0.70;77.13
62057;BME280;48016;50.284;18.860;2024-01-15T02:16:56;96181.79;;;-0.71;76.87
62057;BME280;48016;50.284;18.860;2024-01-15T02:19:23;96183.09;;;-0.72;76.84
62057;BME280;48016;50.284;18.860;2024-01-15T02:21:50;96182.33;;;-0.73;77.02
62057;BME280;48016;50.284;18.860;2024-01-15T02:24:16;96181.58;;;-0.73;77.05
62057;BME280;48016;50.284;18.860;2024-01-15T02:26:43;96174.61;;;-0.72;76.92
62057;BME280;48016;50.284;18.860;2024-01-15T02:29:10;96166.16;;;-0.72;76.90
62057;BME280;48016;50.284;18.860;2024-01-15T02:31:38;96161.94;;;-0.74;76.99
62057;BME280;48016;50.284;18.860;2024-01-15T02:34:05;96157.64;;;-0.74;77.02
62057;BME280;48016;50.284;18.860;2024-01-15T02:36:32;96151.19;;;-0.73;76.97
62057;BME280;48016;50.284;18.860;2024-01-15T02:38:58;96150.05;;;-0.74;76.95
62057;BME280;48016;50.284;18.860;2024-01-15T02:41:25;96143.77;;;-0.74;76.73
62057;BME280;48016;50.284;18.860;2024-01-15T02:43:52;96137.73;;;-0.74;76.86
62057;BME280;48016;50.284;18.860;2024-01-15T02:46:18;96137.79;;;-0.73;76.73
62057;BME280;48016;50.284;18.860;2024-01-15T02:48:45;96135.09;;;-0.73;76.64
62057;BME280;48016;50.284;18.860;2024-01-15T02:51:11;96125.91;;;-0.73;76.60
62057;BME280;48016;50.284;18.860;2024-01-15T02:53:38;96119.92;;;-0.73;76.63
62057;BME280;48016;50.284;18.860;2024-01-15T02:56:07;96127.75;;;-0.74;76.31
62057;BME280;48016;50.284;18.860;2024-01-15T02:58:33;96124.59;;;-0.76;76.29
62057;BME280;48016;50.284;18.860;2024-01-15T03:01:00;96124.27;;;-0.78;76.22
62057;BME280;48016;50.284;18.860;2024-01-15T03:03:27;96114.86;;;-0.79;76.11
62057;BME280;48016;50.284;18.860;2024-01-15T03:05:54;96116.26;;;-0.81;76.03
62057;BME280;48016;50.284;18.860;2024-01-15T03:08:20;96105.30;;;-0.82;75.92
62057;BME280;48016;50.284;18.860;2024-01-15T03:10:48;96098.70;;;-0.84;75.93
62057;BME280;48016;50.284;18.860;2024-01-15T03:13:15;96088.17;;;-0.87;75.55
62057;BME280;48016;50.284;18.860;2024-01-15T03:15:42;96079.94;;;-0.91;75.52
62057;BME280;48016;50.284;18.860;2024-01-15T03:18:09;96074.14;;;-0.95;75.65
62057;BME280;48016;50.284;18.860;2024-01-15T03:20:36;96083.76;;;-0.97;75.74
62057;BME280;48016;50.284;18.860;2024-01-15T03:23:02;96085.34;;;-0.98;75.66
62057;BME280;48016;50.284;18.860;2024-01-15T03:25:29;96088.80;;;-0.97;75.73
62057;BME280;48016;50.284;18.860;2024-01-15T03:27:56;96095.42;;;-0.97;75.63
62057;BME280;48016;50.284;18.860;2024-01-15T03:30:22;96090.27;;;-0.95;75.82
62057;BME280;48016;50.284;18.860;2024-01-15T03:32:49;96075.60;;;-0.93;75.98
62057;BME280;48016;50.284;18.860;2024-01-15T03:35:16;96070.34;;;-0.94;75.90
62057;BME280;48016;50.284;18.860;2024-01-15T03:37:43;96069.75;;;-0.95;75.97
62057;BME280;48016;50.284;18.860;2024-01-15T03:40:10;96065.77;;;-0.94;76.05
62057;BME280;48016;50.284;18.860;2024-01-15T03:42:36;96060.01;;;-0.93;75.86
62057;BME280;48016;50.284;18.860;2024-01-15T03:45:03;96055.41;;;-0.93;75.91
62057;BME280;48016;50.284;18.860;2024-01-15T03:47:30;96058.60;;;-0.92;75.72
62057;BME280;48016;50.284;18.860;2024-01-15T03:49:57;96057.17;;;-0.92;75.70
62057;BME280;48016;50.284;18.860;2024-01-15T03:52:23;96049.27;;;-0.95;75.35
62057;BME280;48016;50.284;18.860;2024-01-15T03:54:50;96043.13;;;-0.96;75.45
62057;BME280;48016;50.284;18.860;2024-01-15T03:57:16;96041.83;;;-0.98;75.22
62057;BME280;48016;50.284;18.860;2024-01-15T03:59:43;96048.21;;;-1.00;75.07
62057;BME280;48016;50.284;18.860;2024-01-15T04:02:10;96053.40;;;-1.01;75.04
62057;BME280;48016;50.284;18.860;2024-01-15T04:04:40;96062.44;;;-1.02;74.98
62057;BME280;48016;50.284;18.860;2024-01-15T04:07:08;96060.15;;;-1.03;74.86
62057;BME280;48016;50.284;18.860;2024-01-15T04:09:34;96058.20;;;-1.02;75.01
62057;BME280;48016;50.284;18.860;2024-01-15T04:12:01;96056.05;;;-1.03;75.29
62057;BME280;48016;50.284;18.860;2024-01-15T04:14:27;96045.79;;;-1.02;75.31
62057;BME280;48016;50.284;18.860;2024-01-15T04:16:55;96040.64;;;-1.02;75.30
62057;BME280;48016;50.284;18.860;2024-01-15T04:19:21;96042.95;;;-1.00;75.16
62057;BME280;48016;50.284;18.860;2024-01-15T04:21:48;96037.60;;;-1.00;75.18
62057;BME280;48016;50.284;18.860;2024-01-15T04:24:14;96031.98;;;-1.00;75.35
62057;BME280;48016;50.284;18.860;2024-01-15T04:26:45;96031.41;;;-0.99;75.23
62057;BME280;48016;50.284;18.860;2024-01-15T04:29:11;96032.25;;;-0.99;75.35
62057;BME280;48016;50.284;18.860;2024-01-15T04:31:38;96030.00;;;-0.98;75.35
62057;BME280;48016;50.284;18.860;2024-01-15T04:34:05;96025.11;;;-0.98;75.15
62057;BME280;48016;50.284;18.860;2024-01-15T04:36:31;96025.48;;;-0.98;75.05
62057;BME280;48016;50.284;18.860;2024-01-15T04:38:58;96026.49;;;-0.98;75.09
62057;BME280;48016;50.284;18.860;2024-01-15T04:41:24;96028.98;;;-0.98;75.03
62057;BME280;48016;50.284;18.860;2024-01-15T04:43:51;96022.30;;;-0.99;75.18
62057;BME280;48016;50.284;18.860;2024-01-15T04:46:17;96029.83;;;-0.99;74.96
62057;BME280;48016;50.284;18.860;2024-01-15T04:48:44;96035.13;;;-0.99;74.77
62057;BME280;48016;50.284;18.860;2024-01-15T04:51:11;96035.09;;;-1.01;74.79
62057;BME280;48016;50.284;18.860;2024-01-15T04:53:37;96032.05;;;-1.02;74.84
62057;BME280;48016;50.284;18.860;2024-01-15T04:56:04;96030.55;;;-1.03;74.83
62057;BME280;48016;50.284;18.860;2024-01-15T04:58:30;96036.95;;;-1.03;75.02
62057;BME280;48016;50.284;18.860;2024-01-15T05:00:57;96031.02;;;-1.03;74.94
62057;BME280;48016;50.284;18.860;2024-01-15T05:03:24;96038.02;;;-1.03;75.07
62057;BME280;48016;50.284;18.860;2024-01-15T05:05:50;96037.30;;;-1.02;75.16
62057;BME280;48016;50.284;18.860;2024-01-15T05:08:17;96035.32;;;-1.00;75.17
62057;BME280;48016;50.284;18.860;2024-01-15T05:10:44;96026.89;;;-1.00;75.21
62057;BME280;48016;50.284;18.860;2024-01-15T05:13:11;96015.17;;;-0.99;75.15
62057;BME280;48016;50.284;18.860;2024-01-15T05:15:37;96014.28;;;-0.99;75.03
62057;BME280;48016;50.284;18.860;2024-01-15T05:18:04;96012.73;;;-1.00;75.13
62057;BME280;48016;50.284;18.860;2024-01-15T05:20:31;96018.70;;;-0.98;75.29
62057;BME280;48016;50.284;18.860;2024-01-15T05:22:57;96020.11;;;-0.96;75.24
62057;BME280;48016;50.284;18.860;2024-01-15T05:25:24;96017.39;;;-0.94;75.15
62057;BME280;48016;50.284;18.860;2024-01-15T05:27:51;96016.49;;;-0.94;75.11
62057;BME280;48016;50.284;18.860;2024-01-15T05:30:17;96008.75;;;-0.97;75.15
62057;BME280;48016;50.284;18.860;2024-01-15T05:32:44;96013.33;;;-0.99;74.91
62057;BME280;48016;50.284;18.860;2024-01-15T05:35:11;96014.77;;;-1.02;74.69
62057;BME280;48016;50.284;18.860;2024-01-15T05:37:43;96011.89;;;-1.04;74.68
62057;BME280;48016;50.284;18.860;2024-01-15T05:40:11;96013.40;;;-1.07;74.68
62057;BME280;48016;50.284;18.860;2024-01-15T05:42:37;96010.15;;;-1.09;74.76
62057;BME280;48016;50.284;18.860;2024-01-15T05:45:04;96013.51;;;-1.12;74.67
62057;BME280;48016;50.284;18.860;2024-01-15T05:47:31;96019.05;;;-1.14;74.79
62057;BME280;48016;50.284;18.860;2024-01-15T05:49:58;96023.05;;;-1.15;74.81
62057;BME280;48016;50.284;18.860;2024-01-15T05:52:25;96024.71;;;-1.16;74.86
62057;BME280;48016;50.284;18.860;2024-01-15T05:54:52;96023.41;;;-1.16;74.81
62057;BME280;48016;50.284;18.860;2024-01-15T05:57:18;96019.54;;;-1.16;74.99
62057;BME280;48016;50.284;18.860;2024-01-15T05:59:45;96024.10;;;-1.16;75.03
62057;BME280;48016;50.284;18.860;2024-01-15T06:02:11;96019.05;;;-1.13;74.92
62057;BME280;48016;50.284;18.860;2024-01-15T06:04:38;96023.62;;;-1.13;75.13
62057;BME280;48016;50.284;18.860;2024-01-15T06:07:05;96018.48;;;-1.13;75.24
62057;BME280;48016;50.284;18.860;2024-01-15T06:09:31;96020.56;;;-1.12;75.31
62057;BME280;48016;50.284;18.860;2024-01-15T06:11:59;96023.34;;;-1.11;75.27
62057;BME280;48016;50.284;18.860;2024-01-15T06:14:26;96024.08;;;-1.09;75.29
62057;BME280;48016;50.284;18.860;2024-01-15T06:16:52;96020.17;;;-1.07;75.34
62057;BME280;48016;50.284;18.860;2024-01-15T06:19:19;96016.55;;;-1.06;75.28
62057;BME280;48016;50.284;18.860;2024-01-15T06:21:46;96021.13;;;-1.04;75.20
62057;BME280;48016;50.284;18.860;2024-01-15T06:24:12;96019.64;;;-1.02;75.30
62057;BME280;48016;50.284;18.860;2024-01-15T06:26:40;96023.55;;;-1.02;75.21
62057;BME280;48016;50.284;18.860;2024-01-15T06:29:06;96026.35;;;-1.01;75.26
62057;BME280;48016;50.284;18.860;2024-01-15T06:31:33;96017.63;;;-1.02;75.24
62057;BME280;48016;50.284;18.860;2024-01-15T06:33:59;96023.07;;;-1.02;75.21
62057;BME280;48016;50.284;18.860;2024-01-15T06:36:26;96026.81;;;-1.01;75.16
62057;BME280;48016;50.284;18.860;2024-01-15T06:38:52;96037.50;;;-1.00;74.89
62057;BME280;48016;50.284;18.860;2024-01-15T06:41:19;96033.21;;;-0.99;74.84
62057;BME280;48016;50.284;18.860;2024-01-15T06:43:46;96034.41;;;-1.00;74.87
62057;BME280;48016;50.284;18.860;2024-01-15T06:46:12;96041.38;;;-1.02;74.75
62057;BME280;48016;50.284;18.860;2024-01-15T06:48:39;96043.53;;;-1.03;74.65
62057;BME280;48016;50.284;18.860;2024-01-15T06:51:05;96040.98;;;-1.03;74.93
62057;BME280;48016;50.284;18.860;2024-01-15T06:53:32;96046.48;;;-1.02;74.79
62057;BME280;48016;50.284;18.860;2024-01-15T06:55:58;96049.75;;;-1.00;74.90
62057;BME280;48016;50.284;18.860;2024-01-15T06:58:25;96053.65;;;-0.99;75.02
62057;BME280;48016;50.284;18.860;2024-01-15T07:00:52;96055.42;;;-0.98;74.86
62057;BME280;48016;50.284;18.860;2024-01-15T07:03:18;96058.30;;;-0.96;75.02
62057;BME280;48016;50.284;18.860;2024-01-15T07:05:45;96059.73;;;-0.94;75.16
62057;BME280;48016;50.284;18.860;2024-01-15T07:08:11;96062.27;;;-0.92;75.16
62057;BME280;48016;50.284;18.860;2024-01-15T07:10:38;96070.31;;;-0.90;75.13
62057;BME280;48016;50.284;18.860;2024-01-15T07:13:05;96070.86;;;-0.88;75.10
62057;BME280;48016;50.284;18.860;2024-01-15T07:15:32;96077.02;;;-0.85;74.96
62057;BME280;48016;50.284;18.860;2024-01-15T07:17:58;96086.95;;;-0.82;75.11
62057;BME280;48016;50.284;18.860;2024-01-15T07:20:25;96086.33;;;-0.81;75.00
62057;BME280;48016;50.284;18.860;2024-01-15T07:22:51;96086.20;;;-0.80;74.95
62057;BME280;48016;50.284;18.860;2024-01-15T07:25:18;96086.10;;;-0.79;74.79
62057;BME280;48016;50.284;18.860;2024-01-15T07:27:45;96086.52;;;-0.77;74.84
62057;BME280;48016;50.284;18.860;2024-01-15T07:30:13;96091.21;;;-0.76;74.55
62057;BME280;48016;50.284;18.860;2024-01-15T07:32:39;96085.14;;;-0.75;74.54
62057;BME280;48016;50.284;18.860;2024-01-15T07:35:07;96085.09;;;-0.71;74.44
62057;BME280;48016;50.284;18.860;2024-01-15T07:37:33;96085.19;;;-0.66;74.17
62057;BME280;48016;50.284;18.860;2024-01-15T07:40:00;96085.69;;;-0.61;74.27
62057;BME280;48016;50.284;18.860;2024-01-15T07:42:27;96088.06;;;-0.57;74.08
62057;BME280;48016;50.284;18.860;2024-01-15T07:44:53;96093.32;;;-0.53;74.23
62057;BME280;48016;50.284;18.860;2024-01-15T07:47:20;96098.48;;;-0.53;74.15
62057;BME280;48016;50.284;18.860;2024-01-15T07:49:46;96105.24;;;-0.51;74.10
62057;BME280;48016;50.284;18.860;2024-01-15T07:52:13;96108.17;;;-0.51;74.20
62057;BME280;48016;50.284;18.860;2024-01-15T07:54:40;96106.66;;;-0.50;74.10
62057;BME280;48016;50.284;18.860;2024-01-15T07:57:07;96105.31;;;-0.44;74.20
62057;BME280;48016;50.284;18.860;2024-01-15T07:59:35;96106.05;;;-0.38;73.84
62057;BME280;48016;50.284;18.860;2024-01-15T08:02:02;96111.39;;;-0.34;73.85
62057;BME280;48016;50.284;18.860;2024-01-15T08:04:29;96111.79;;;-0.30;73.57
62057;BME280;48016;50.284;18.860;2024-01-15T08:06:55;96114.88;;;-0.26;73.42
62057;BME280;48016;50.284;18.860;2024-01-15T08:09:23;96111.66;;;-0.21;73.60
62057;BME280;48016;50.284;18.860;2024-01-15T08:11:50;96110.88;;;-0.17;73.39
62057;BME280;48016;50.284;18.860;2024-01-15T08:14:17;96114.03;;;-0.16;73.29
62057;BME280;48016;50.284;18.860;2024-01-15T08:16:44;96119.37;;;-0.12;73.15
62057;BME280;48016;50.284;18.860;2024-01-15T08:19:10;96117.76;;;-0.09;72.95
62057;BME280;48016;50.284;18.860;2024-01-15T08:21:37;96116.07;;;-0.09;72.65
62057;BME280;48016;50.284;18.860;2024-01-15T08:24:04;96123.77;;;-0.12;72.79
62057;BME280;48016;50.284;18.860;2024-01-15T08:26:31;96125.73;;;-0.15;73.39
62057;BME280;48016;50.284;18.860;2024-01-15T08:28:58;96130.36;;;-0.15;73.72
62057;BME280;48016;50.284;18.860;2024-01-15T08:31:25;96125.73;;;-0.13;73.99
62057;BME280;48016;50.284;18.860;2024-01-15T08:33:52;96123.36;;;-0.08;74.15
62057;BME280;48016;50.284;18.860;2024-01-15T08:36:19;96117.46;;;-0.04;74.27
62057;BME280;48016;50.284;18.860;2024-01-15T08:38:45;96122.88;;;-0.02;74.33
62057;BME280;48016;50.284;18.860;2024-01-15T08:41:12;96129.30;;;0.01;74.30
62057;BME280;48016;50.284;18.860;2024-01-15T08:43:39;96129.63;;;0.02;74.47
62057;BME280;48016;50.284;18.860;2024-01-15T08:46:06;96116.48;;;0.05;74.24
62057;BME280;48016;50.284;18.860;2024-01-15T08:48:35;96118.87;;;0.10;74.25
62057;BME280;48016;50.284;18.860;2024-01-15T08:51:03;96121.86;;;0.15;74.46
62057;BME280;48016;50.284;18.860;2024-01-15T08:53:29;96126.29;;;0.19;74.35
62057;BME280;48016;50.284;18.860;2024-01-15T08:55:56;96123.30;;;0.22;74.02
62057;BME280;48016;50.284;18.860;2024-01-15T08:58:23;96124.04;;;0.28;73.93
62057;BME280;48016;50.284;18.860;2024-01-15T09:00:51;96125.19;;;0.34;73.75
62057;BME280;48016;50.284;18.860;2024-01-15T09:03:17;96123.80;;;0.44;73.86
62057;BME280;48016;50.284;18.860;2024-01-15T09:05:44;96124.23;;;0.65;73.61
62057;BME280;48016;50.284;18.860;2024-01-15T09:08:11;96123.10;;;0.86;73.18
62057;BME280;48016;50.284;18.860;2024-01-15T09:10:38;96123.06;;;1.09;72.86
62057;BME280;48016;50.284;18.860;2024-01-15T09:13:04;96127.53;;;1.21;72.38
62057;BME280;48016;50.284;18.860;2024-01-15T09:15:31;96127.60;;;1.24;72.06
62057;BME280;48016;50.284;18.860;2024-01-15T09:17:58;96128.23;;;1.28;71.84
62057;BME280;48016;50.284;18.860;2024-01-15T09:20:25;96126.09;;;1.31;71.44
62057;BME280;48016;50.284;18.860;2024-01-15T09:22:53;96125.77;;;1.34;71.15
62057;BME280;48016;50.284;18.860;2024-01-15T09:25:20;96127.89;;;1.40;71.21
62057;BME280;48016;50.284;18.860;2024-01-15T09:27:47;96128.29;;;1.47;70.96
62057;BME280;48016;50.284;18.860;2024-01-15T09:30:14;96125.45;;;1.56;70.68
62057;BME280;48016;50.284;18.860;2024-01-15T09:32:41;96125.15;;;1.68;70.37
62057;BME280;48016;50.284;18.860;2024-01-15T09:35:08;96123.95;;;1.81;69.94
62057;BME280;48016;50.284;18.860;2024-01-15T09:37:35;96121.19;;;1.89;69.07
62057;BME280;48016;50.284;18.860;2024-01-15T09:40:01;96115.28;;;2.01;69.37
62057;BME280;48016;50.284;18.860;2024-01-15T09:42:29;96108.56;;;2.14;68.73
62057;BME280;48016;50.284;18.860;2024-01-15T09:44:56;96108.64;;;2.24;68.67
62057;BME280;48016;50.284;18.860;2024-01-15T09:47:23;96108.73;;;2.37;68.04
62057;BME280;48016;50.284;18.860;2024-01-15T09:49:51;96115.64;;;2.49;68.31
62057;BME280;48016;50.284;18.860;2024-01-15T09:52:18;96121.31;;;2.69;67.89
62057;BME280;48016;50.284;18.860;2024-01-15T09:54:46;96113.22;;;2.90;67.75
62057;BME280;48016;50.284;18.860;2024-01-15T09:57:13;96110.63;;;2.94;66.81
62057;BME280;48016;50.284;18.860;2024-01-15T09:59:42;96108.92;;;2.98;66.47
62057;BME280;48016;50.284;18.860;2024-01-15T10:02:12;96107.17;;;2.98;66.24
62057;BME280;48016;50.284;18.860;2024-01-15T10:04:44;96113.98;;;2.94;66.66
62057;BME280;48016;50.284;18.860;2024-01-15T10:07:15;96111.30;;;2.90;66.47
62057;BME280;48016;50.284;18.860;2024-01-15T10:09:43;96107.19;;;2.90;66.16
62057;BME280;48016;50.284;18.860;2024-01-15T10:12:10;96107.04;;;2.91;66.43
62057;BME280;48016;50.284;18.860;2024-01-15T10:14:38;96107.83;;;2.92;66.02
62057;BME280;48016;50.284;18.860;2024-01-15T10:17:14;96104.00;;;2.94;65.40
62057;BME280;48016;50.284;18.860;2024-01-15T10:19:46;96092.55;;;3.00;65.90
62057;BME280;48016;50.284;18.860;2024-01-15T10:22:14;96094.96;;;3.02;65.86
62057;BME280;48016;50.284;18.860;2024-01-15T10:24:41;96100.45;;;3.02;65.48
62057;BME280;48016;50.284;18.860;2024-01-15T10:27:09;96102.11;;;3.01;65.29
62057;BME280;48016;50.284;18.860;2024-01-15T10:29:36;96099.78;;;3.06;65.16
62057;BME280;48016;50.284;18.860;2024-01-15T10:32:06;96098.98;;;3.03;64.69
62057;BME280;48016;50.284;18.860;2024-01-15T10:34:38;96108.46;;;3.01;65.04
62057;BME280;48016;50.284;18.860;2024-01-15T10:37:09;96109.98;;;2.94;64.58
62057;BME280;48016;50.284;18.860;2024-01-15T10:39:36;96110.40;;;2.90;64.40
62057;BME280;48016;50.284;18.860;2024-01-15T10:42:03;96102.09;;;2.97;64.73
62057;BME280;48016;50.284;18.860;2024-01-15T10:44:30;96098.55;;;3.06;64.23
62057;BME280;48016;50.284;18.860;2024-01-15T10:46:57;96098.35;;;3.08;63.92
62057;BME280;48016;50.284;18.860;2024-01-15T10:49:24;96094.36;;;3.00;63.46
62057;BME280;48016;50.284;18.860;2024-01-15T10:51:53;96093.80;;;2.93;63.00
62057;BME280;48016;50.284;18.860;2024-01-15T10:54:20;96088.74;;;2.86;63.11
62057;BME280;48016;50.284;18.860;2024-01-15T10:56:50;96088.15;;;2.73;62.55
62057;BME280;48016;50.284;18.860;2024-01-15T10:59:20;96086.59;;;2.60;62.13
62057;BME280;48016;50.284;18.860;2024-01-15T11:01:48;96085.90;;;2.52;62.57
62057;BME280;48016;50.284;18.860;2024-01-15T11:04:15;96084.27;;;2.47;62.83
62057;BME280;48016;50.284;18.860;2024-01-15T11:06:45;96081.74;;;2.44;62.68
62057;BME280;48016;50.284;18.860;2024-01-15T11:09:13;96081.23;;;2.39;62.48
62057;BME280;48016;50.284;18.860;2024-01-15T11:11:43;96085.55;;;2.32;62.47
62057;BME280;48016;50.284;18.860;2024-01-15T11:14:10;96087.80;;;2.33;62.59
62057;BME280;48016;50.284;18.860;2024-01-15T11:16:57;96087.02;;;2.34;62.76
62057;BME280;48016;50.284;18.860;2024-01-15T11:19:25;96086.48;;;2.28;62.55
62057;BME280;48016;50.284;18.860;2024-01-15T11:21:52;96092.02;;;2.17;62.62
62057;BME280;48016;50.284;18.860;2024-01-15T11:24:39;96095.58;;;2.11;62.86
62057;BME280;48016;50.284;18.860;2024-01-15T11:27:07;96090.25;;;2.04;62.85
62057;BME280;48016;50.284;18.860;2024-01-15T11:29:35;96089.49;;;1.97;62.89
62057;BME280;48016;50.284;18.860;2024-01-15T11:32:08;96080.19;;;1.92;62.93
62057;BME280;48016;50.284;18.860;2024-01-15T11:34:54;96084.89;;;1.88;63.14
62057;BME280;48016;50.284;18.860;2024-01-15T11:37:26;96084.73;;;1.81;63.13
62057;BME280;48016;50.284;18.860;2024-01-15T11:40:12;96088.30;;;1.71;63.28
62057;BME280;48016;50.284;18.860;2024-01-15T11:42:39;96087.27;;;1.61;63.08
62057;BME280;48016;50.284;18.860;2024-01-15T11:45:06;96087.59;;;1.55;63.38
62057;BME280;48016;50.284;18.860;2024-01-15T11:50:21;96086.38;;;1.42;63.56
62057;BME280;48016;50.284;18.860;2024-01-15T11:55:45;96085.33;;;1.19;63.84
62057;BME280;48016;50.284;18.860;2024-01-15T11:58:12;96090.30;;;1.06;63.80
62057;BME280;48016;50.284;18.860;2024-01-15T12:00:44;96086.61;;;0.92;64.15
62057;BME280;48016;50.284;18.860;2024-01-15T12:03:11;96081.06;;;0.84;64.24
62057;BME280;48016;50.284;18.860;2024-01-15T12:05:38;96086.48;;;0.77;64.50
62057;BME280;48016;50.284;18.860;2024-01-15T12:08:05;96087.01;;;0.68;64.50
62057;BME280;48016;50.284;18.860;2024-01-15T12:10:38;96096.28;;;0.62;64.59
62057;BME280;48016;50.284;18.860;2024-01-15T12:13:14;96101.30;;;0.56;64.95
62057;BME280;48016;50.284;18.860;2024-01-15T12:15:42;96098.16;;;0.51;65.00
62057;BME280;48016;50.284;18.860;2024-01-15T12:18:11;96089.52;;;0.49;65.09
62057;BME280;48016;50.284;18.860;2024-01-15T12:20:39;96089.08;;;0.44;65.20
62057;BME280;48016;50.284;18.860;2024-01-15T12:23:05;96093.84;;;0.42;65.39
62057;BME280;48016;50.284;18.860;2024-01-15T12:25:33;96090.41;;;0.40;65.28
62057;BME280;48016;50.284;18.860;2024-01-15T12:28:01;96087.11;;;0.37;65.49
62057;BME280;48016;50.284;18.860;2024-01-15T12:30:28;96091.77;;;0.35;65.64
62057;BME280;48016;50.284;18.860;2024-01-15T12:32:55;96085.52;;;0.36;65.68
62057;BME280;48016;50.284;18.860;2024-01-15T12:35:24;96089.30;;;0.33;65.59
62057;BME280;48016;50.284;18.860;2024-01-15T12:37:51;96091.09;;;0.33;65.63
62057;BME280;48016;50.284;18.860;2024-01-15T12:40:22;96102.84;;;0.36;66.01
62057;BME280;48016;50.284;18.860;2024-01-15T12:42:49;96101.64;;;0.41;65.98
62057;BME280;48016;50.284;18.860;2024-01-15T12:45:16;96098.60;;;0.48;66.03
62057;BME280;48016;50.284;18.860;2024-01-15T12:47:43;96097.84;;;0.51;66.09
62057;BME280;48016;50.284;18.860;2024-01-15T12:50:12;96096.34;;;0.54;66.14
62057;BME280;48016;50.284;18.860;2024-01-15T12:52:42;96093.81;;;0.53;65.56
62057;BME280;48016;50.284;18.860;2024-01-15T12:55:09;96106.46;;;0.48;65.54
62057;BME280;48016;50.284;18.860;2024-01-15T12:57:36;96090.41;;;0.48;65.27
62057;BME280;48016;50.284;18.860;2024-01-15T13:00:04;96094.25;;;0.44;65.40